sensor_id;sensor_type;location;lat;lon;timestamp;temperature;humidity
40289;DHT22;28991;52.028;5.526;2023-04-15T00:00:23;19.50;41.20
40289;DHT22;28991;52.028;5.526;2023-04-15T00:02:50;19.30;41.10
40289;DHT22;28991;52.028;5.526;2023-04-15T00:05:15;19.30;41.10
40289;DHT22;28991;52.028;5.526;2023-04-15T00:07:41;19.30;41.10
40289;DHT22;28991;52.028;5.526;2023-04-15T00:10:07;19.30;41.10
40289;DHT22;28991;52.028;5.526;2023-04-15T00:12:33;19.30;41.10
40289;DHT22;28991;52.028;5.526;2023-04-15T00:14:59;19.30;41.20
40289;DHT22;28991;52.028;5.526;2023-04-15T00:17:24;19.30;41.20
40289;DHT22;28991;52.028;5.526;2023-04-15T00:19:50;19.20;41.20
40289;DHT22;28991;52.028;5.526;2023-04-15T00:22:15;19.40;41.30
40289;DHT22;28991;52.028;5.526;2023-04-15T00:24:42;19.30;41.30
40289;DHT22;28991;52.028;5.526;2023-04-15T00:27:08;19.30;41.30
40289;DHT22;28991;52.028;5.526;2023-04-15T00:29:33;19.20;41.30
40289;DHT22;28991;52.028;5.526;2023-04-15T00:31:59;19.30;41.30
40289;DHT22;28991;52.028;5.526;2023-04-15T00:34:26;19.40;41.40
40289;DHT22;28991;52.028;5.526;2023-04-15T00:36:52;19.30;41.30
40289;DHT22;28991;52.028;5.526;2023-04-15T00:39:17;19.40;41.40
40289;DHT22;28991;52.028;5.526;2023-04-15T00:41:45;19.30;41.90
40289;DHT22;28991;52.028;5.526;2023-04-15T00:44:11;19.40;41.40
40289;DHT22;28991;52.028;5.526;2023-04-15T00:46:38;19.30;41.40
40289;DHT22;28991;52.028;5.526;2023-04-15T00:49:05;19.50;41.50
40289;DHT22;28991;52.028;5.526;2023-04-15T00:51:31;19.30;42.00
40289;DHT22;28991;52.028;5.526;2023-04-15T00:53:58;19.30;41.50
40289;DHT22;28991;52.028;5.526;2023-04-15T00:56:24;19.30;41.50
40289;DHT22;28991;52.028;5.526;2023-04-15T00:58:51;19.30;41.50
40289;DHT22;28991;52.028;5.526;2023-04-15T01:01:20;19.30;41.50
40289;DHT22;28991;52.028;5.526;2023-04-15T01:03:48;19.40;41.60
40289;DHT22;28991;52.028;5.526;2023-04-15T01:06:14;19.20;41.50
40289;DHT22;28991;52.028;5.526;2023-04-15T01:08:41;19.30;41.50
40289;DHT22;28991;52.028;5.526;2023-04-15T01:11:06;19.30;41.60
40289;DHT22;28991;52.028;5.526;2023-04-15T01:13:33;19.30;41.60
40289;DHT22;28991;52.028;5.526;2023-04-15T01:15:58;19.80;41.90
40289;DHT22;28991;52.028;5.526;2023-04-15T01:18:25;19.30;41.60
40289;DHT22;28991;52.028;5.526;2023-04-15T01:20:50;19.40;41.70
40289;DHT22;28991;52.028;5.526;2023-04-15T01:23:16;19.40;41.70
40289;DHT22;28991;52.028;5.526;2023-04-15T01:25:43;19.60;41.90
40289;DHT22;28991;52.028;5.526;2023-04-15T01:28:09;19.30;41.70
40289;DHT22;28991;52.028;5.526;2023-04-15T01:30:35;19.30;41.70
40289;DHT22;28991;52.028;5.526;2023-04-15T01:33:00;19.60;41.90
40289;DHT22;28991;52.028;5.526;2023-04-15T01:35:26;19.80;42.60
40289;DHT22;28991;52.028;5.526;2023-04-15T01:37:53;19.30;41.70
40289;DHT22;28991;52.028;5.526;2023-04-15T01:40:19;19.30;41.80
40289;DHT22;28991;52.028;5.526;2023-04-15T01:42:45;19.30;41.80
40289;DHT22;28991;52.028;5.526;2023-04-15T01:45:11;19.30;41.80
40289;DHT22;28991;52.028;5.526;2023-04-15T01:47:38;19.30;42.40
40289;DHT22;28991;52.028;5.526;2023-04-15T01:50:04;19.20;41.80
40289;DHT22;28991;52.028;5.526;2023-04-15T01:52:30;19.20;41.80
40289;DHT22;28991;52.028;5.526;2023-04-15T01:54:56;19.40;41.90
40289;DHT22;28991;52.028;5.526;2023-04-15T01:57:21;19.20;41.80
40289;DHT22;28991;52.028;5.526;2023-04-15T01:59:47;19.20;41.90
40289;DHT22;28991;52.028;5.526;2023-04-15T02:02:13;19.20;41.90
40289;DHT22;28991;52.028;5.526;2023-04-15T02:04:38;19.30;41.90
40289;DHT22;28991;52.028;5.526;2023-04-15T02:07:04;19.20;41.90
40289;DHT22;28991;52.028;5.526;2023-04-15T02:09:30;19.20;41.90
40289;DHT22;28991;52.028;5.526;2023-04-15T02:11:55;19.20;41.90
40289;DHT22;28991;52.028;5.526;2023-04-15T02:14:21;19.20;41.90
40289;DHT22;28991;52.028;5.526;2023-04-15T02:16:46;19.20;41.90
40289;DHT22;28991;52.028;5.526;2023-04-15T02:19:12;19.80;42.30
40289;DHT22;28991;52.028;5.526;2023-04-15T02:21:38;19.20;42.00
40289;DHT22;28991;52.028;5.526;2023-04-15T02:24:04;19.40;42.10
40289;DHT22;28991;52.028;5.526;2023-04-15T02:26:30;19.20;42.00
40289;DHT22;28991;52.028;5.526;2023-04-15T02:28:57;19.20;42.00
40289;DHT22;28991;52.028;5.526;2023-04-15T02:31:24;19.20;42.00
40289;DHT22;28991;52.028;5.526;2023-04-15T02:33:49;19.20;42.10
40289;DHT22;28991;52.028;5.526;2023-04-15T02:36:15;19.30;42.20
40289;DHT22;28991;52.028;5.526;2023-04-15T02:38:46;19.20;42.10
40289;DHT22;28991;52.028;5.526;2023-04-15T02:41:12;19.30;42.10
40289;DHT22;28991;52.028;5.526;2023-04-15T02:43:38;19.20;42.10
40289;DHT22;28991;52.028;5.526;2023-04-15T02:46:04;19.20;42.10
40289;DHT22;28991;52.028;5.526;2023-04-15T02:48:30;19.20;42.10
40289;DHT22;28991;52.028;5.526;2023-04-15T02:53:38;19.20;42.20
40289;DHT22;28991;52.028;5.526;2023-04-15T02:56:04;19.20;42.20
40289;DHT22;28991;52.028;5.526;2023-04-15T02:58:30;19.20;42.20
40289;DHT22;28991;52.028;5.526;2023-04-15T03:01:05;19.20;42.20
40289;DHT22;28991;52.028;5.526;2023-04-15T03:03:31;19.30;42.30
40289;DHT22;28991;52.028;5.526;2023-04-15T03:05:59;19.10;42.20
40289;DHT22;28991;52.028;5.526;2023-04-15T03:08:25;19.20;42.30
40289;DHT22;28991;52.028;5.526;2023-04-15T03:10:51;19.20;42.30
40289;DHT22;28991;52.028;5.526;2023-04-15T03:13:17;19.20;42.30
40289;DHT22;28991;52.028;5.526;2023-04-15T03:15:45;19.10;42.30
40289;DHT22;28991;52.028;5.526;2023-04-15T03:18:11;19.20;42.30
40289;DHT22;28991;52.028;5.526;2023-04-15T03:20:36;19.20;42.30
40289;DHT22;28991;52.028;5.526;2023-04-15T03:23:02;19.20;42.30
40289;DHT22;28991;52.028;5.526;2023-04-15T03:25:27;19.10;42.30
40289;DHT22;28991;52.028;5.526;2023-04-15T03:27:55;19.10;42.30
40289;DHT22;28991;52.028;5.526;2023-04-15T03:30:21;19.00;42.30
40289;DHT22;28991;52.028;5.526;2023-04-15T03:32:47;19.10;42.30
40289;DHT22;28991;52.028;5.526;2023-04-15T03:35:12;19.10;42.40
40289;DHT22;28991;52.028;5.526;2023-04-15T03:37:41;19.10;42.40
40289;DHT22;28991;52.028;5.526;2023-04-15T03:40:10;19.20;42.50
40289;DHT22;28991;52.028;5.526;2023-04-15T03:42:38;19.10;42.50
40289;DHT22;28991;52.028;5.526;2023-04-15T03:45:06;19.10;42.50
40289;DHT22;28991;52.028;5.526;2023-04-15T03:47:38;19.10;42.40
40289;DHT22;28991;52.028;5.526;2023-04-15T03:50:06;19.20;42.50
40289;DHT22;28991;52.028;5.526;2023-04-15T03:52:32;19.10;42.50
40289;DHT22;28991;52.028;5.526;2023-04-15T03:54:58;19.10;42.50
40289;DHT22;28991;52.028;5.526;2023-04-15T03:57:27;19.10;42.50
40289;DHT22;28991;52.028;5.526;2023-04-15T03:59:52;19.10;42.50
40289;DHT22;28991;52.028;5.526;2023-04-15T04:02:18;19.10;42.50
40289;DHT22;28991;52.028;5.526;2023-04-15T04:04:43;19.10;42.50
40289;DHT22;28991;52.028;5.526;2023-04-15T04:07:14;19.10;42.50
40289;DHT22;28991;52.028;5.526;2023-04-15T04:09:40;19.10;42.60
40289;DHT22;28991;52.028;5.526;2023-04-15T04:12:06;19.10;42.50
40289;DHT22;28991;52.028;5.526;2023-04-15T04:14:32;19.10;42.60
40289;DHT22;28991;52.028;5.526;2023-04-15T04:16:57;19.10;42.60
40289;DHT22;28991;52.028;5.526;2023-04-15T04:19:23;19.10;42.60
40289;DHT22;28991;52.028;5.526;2023-04-15T04:21:48;19.10;42.60
40289;DHT22;28991;52.028;5.526;2023-04-15T04:24:14;19.10;42.60
40289;DHT22;28991;52.028;5.526;2023-04-15T04:26:39;19.10;42.70
40289;DHT22;28991;52.028;5.526;2023-04-15T04:29:05;19.00;42.60
40289;DHT22;28991;52.028;5.526;2023-04-15T04:31:31;19.10;42.70
40289;DHT22;28991;52.028;5.526;2023-04-15T04:33:57;19.10;42.70
40289;DHT22;28991;52.028;5.526;2023-04-15T04:36:22;19.10;42.70
40289;DHT22;28991;52.028;5.526;2023-04-15T04:38:48;19.00;42.70
40289;DHT22;28991;52.028;5.526;2023-04-15T04:41:13;19.10;42.70
40289;DHT22;28991;52.028;5.526;2023-04-15T04:43:39;19.10;42.80
40289;DHT22;28991;52.028;5.526;2023-04-15T04:46:04;19.10;42.70
40289;DHT22;28991;52.028;5.526;2023-04-15T04:48:30;19.10;42.80
40289;DHT22;28991;52.028;5.526;2023-04-15T04:50:56;19.10;42.70
40289;DHT22;28991;52.028;5.526;2023-04-15T04:53:21;19.10;42.70
40289;DHT22;28991;52.028;5.526;2023-04-15T04:55:47;19.40;42.90
40289;DHT22;28991;52.028;5.526;2023-04-15T04:58:12;19.10;42.80
40289;DHT22;28991;52.028;5.526;2023-04-15T05:00:40;19.00;42.70
40289;DHT22;28991;52.028;5.526;2023-04-15T05:03:06;19.00;42.70
40289;DHT22;28991;52.028;5.526;2023-04-15T05:05:31;19.10;42.70
40289;DHT22;28991;52.028;5.526;2023-04-15T05:07:57;19.10;42.70
40289;DHT22;28991;52.028;5.526;2023-04-15T05:10:23;19.10;42.80
40289;DHT22;28991;52.028;5.526;2023-04-15T05:12:48;19.20;42.80
40289;DHT22;28991;52.028;5.526;2023-04-15T05:15:14;19.20;42.70
40289;DHT22;28991;52.028;5.526;2023-04-15T05:17:40;19.20;42.80
40289;DHT22;28991;52.028;5.526;2023-04-15T05:20:06;19.20;42.70
40289;DHT22;28991;52.028;5.526;2023-04-15T05:22:32;19.30;42.60
40289;DHT22;28991;52.028;5.526;2023-04-15T05:24:58;19.40;42.50
40289;DHT22;28991;52.028;5.526;2023-04-15T05:27:23;19.50;42.40
40289;DHT22;28991;52.028;5.526;2023-04-15T05:29:49;19.60;42.20
40289;DHT22;28991;52.028;5.526;2023-04-15T05:32:15;19.70;42.00
40289;DHT22;28991;52.028;5.526;2023-04-15T05:34:40;19.90;41.90
40289;DHT22;28991;52.028;5.526;2023-04-15T05:37:06;20.00;41.70
40289;DHT22;28991;52.028;5.526;2023-04-15T05:39:32;20.10;41.50
40289;DHT22;28991;52.028;5.526;2023-04-15T05:41:58;20.20;41.40
40289;DHT22;28991;52.028;5.526;2023-04-15T05:44:24;20.70;41.40
40289;DHT22;28991;52.028;5.526;2023-04-15T05:46:50;20.50;41.20
40289;DHT22;28991;52.028;5.526;2023-04-15T05:49:15;20.60;41.00
40289;DHT22;28991;52.028;5.526;2023-04-15T05:51:41;20.80;41.00
40289;DHT22;28991;52.028;5.526;2023-04-15T05:54:06;20.80;41.00
40289;DHT22;28991;52.028;5.526;2023-04-15T05:56:32;20.80;41.00
40289;DHT22;28991;52.028;5.526;2023-04-15T05:58:58;20.70;41.10
40289;DHT22;28991;52.028;5.526;2023-04-15T06:01:23;20.80;41.00
40289;DHT22;28991;52.028;5.526;2023-04-15T06:03:49;20.70;41.10
40289;DHT22;28991;52.028;5.526;2023-04-15T06:06:15;20.60;41.10
40289;DHT22;28991;52.028;5.526;2023-04-15T06:08:41;20.60;41.20
40289;DHT22;28991;52.028;5.526;2023-04-15T06:11:06;20.50;41.20
40289;DHT22;28991;52.028;5.526;2023-04-15T06:13:32;20.60;41.40
40289;DHT22;28991;52.028;5.526;2023-04-15T06:15:58;20.60;41.30
40289;DHT22;28991;52.028;5.526;2023-04-15T06:18:24;20.50;41.30
40289;DHT22;28991;52.028;5.526;2023-04-15T06:20:49;20.60;41.40
40289;DHT22;28991;52.028;5.526;2023-04-15T06:23:15;20.60;41.30
40289;DHT22;28991;52.028;5.526;2023-04-15T06:25:41;21.00;41.40
40289;DHT22;28991;52.028;5.526;2023-04-15T06:28:07;20.70;41.30
40289;DHT22;28991;52.028;5.526;2023-04-15T06:30:32;20.60;41.40
40289;DHT22;28991;52.028;5.526;2023-04-15T06:32:58;20.50;41.50
40289;DHT22;28991;52.028;5.526;2023-04-15T06:35:24;20.30;41.60
40289;DHT22;28991;52.028;5.526;2023-04-15T06:37:49;20.20;41.70
40289;DHT22;28991;52.028;5.526;2023-04-15T06:40:16;20.20;41.80
40289;DHT22;28991;52.028;5.526;2023-04-15T06:42:41;20.10;41.90
40289;DHT22;28991;52.028;5.526;2023-04-15T06:45:08;20.00;42.00
40289;DHT22;28991;52.028;5.526;2023-04-15T06:47:33;19.90;42.00
40289;DHT22;28991;52.028;5.526;2023-04-15T06:49:59;19.80;42.10
40289;DHT22;28991;52.028;5.526;2023-04-15T06:52:24;19.80;42.10
40289;DHT22;28991;52.028;5.526;2023-04-15T06:54:50;19.70;42.10
40289;DHT22;28991;52.028;5.526;2023-04-15T06:57:16;19.70;42.20
40289;DHT22;28991;52.028;5.526;2023-04-15T06:59:41;19.70;42.20
40289;DHT22;28991;52.028;5.526;2023-04-15T07:02:08;20.10;42.40
40289;DHT22;28991;52.028;5.526;2023-04-15T07:04:36;19.60;42.20
40289;DHT22;28991;52.028;5.526;2023-04-15T07:07:02;19.60;42.20
40289;DHT22;28991;52.028;5.526;2023-04-15T07:09:27;19.60;42.20
40289;DHT22;28991;52.028;5.526;2023-04-15T07:11:54;19.50;42.20
40289;DHT22;28991;52.028;5.526;2023-04-15T07:14:19;19.60;42.20
40289;DHT22;28991;52.028;5.526;2023-04-15T07:16:45;19.50;42.20
40289;DHT22;28991;52.028;5.526;2023-04-15T07:19:11;19.50;42.20
40289;DHT22;28991;52.028;5.526;2023-04-15T07:21:37;19.50;42.20
40289;DHT22;28991;52.028;5.526;2023-04-15T07:24:02;19.50;42.20
40289;DHT22;28991;52.028;5.526;2023-04-15T07:26:28;19.40;42.10
40289;DHT22;28991;52.028;5.526;2023-04-15T07:28:53;19.50;42.20
40289;DHT22;28991;52.028;5.526;2023-04-15T07:31:19;19.50;42.20
40289;DHT22;28991;52.028;5.526;2023-04-15T07:33:45;19.50;42.20
40289;DHT22;28991;52.028;5.526;2023-04-15T07:36:11;19.50;42.20
40289;DHT22;28991;52.028;5.526;2023-04-15T07:38:37;19.40;42.20
40289;DHT22;28991;52.028;5.526;2023-04-15T07:41:02;19.40;42.20
40289;DHT22;28991;52.028;5.526;2023-04-15T07:43:29;19.40;42.20
40289;DHT22;28991;52.028;5.526;2023-04-15T07:45:54;19.30;42.10
40289;DHT22;28991;52.028;5.526;2023-04-15T07:48:20;19.40;42.10
40289;DHT22;28991;52.028;5.526;2023-04-15T07:50:46;19.50;42.20
40289;DHT22;28991;52.028;5.526;2023-04-15T07:53:11;19.40;42.20
40289;DHT22;28991;52.028;5.526;2023-04-15T07:55:37;19.40;42.20
40289;DHT22;28991;52.028;5.526;2023-04-15T07:58:03;19.50;42.20
40289;DHT22;28991;52.028;5.526;2023-04-15T08:00:29;19.50;42.20
40289;DHT22;28991;52.028;5.526;2023-04-15T08:02:55;19.50;42.20
40289;DHT22;28991;52.028;5.526;2023-04-15T08:05:21;19.50;42.20
40289;DHT22;28991;52.028;5.526;2023-04-15T08:07:47;19.50;42.20
40289;DHT22;28991;52.028;5.526;2023-04-15T08:10:13;19.80;42.40
40289;DHT22;28991;52.028;5.526;2023-04-15T08:12:39;19.60;42.20
40289;DHT22;28991;52.028;5.526;2023-04-15T08:15:05;19.60;42.30
40289;DHT22;28991;52.028;5.526;2023-04-15T08:17:32;19.50;42.20
40289;DHT22;28991;52.028;5.526;2023-04-15T08:19:58;19.40;42.10
40289;DHT22;28991;52.028;5.526;2023-04-15T08:22:23;19.50;42.10
40289;DHT22;28991;52.028;5.526;2023-04-15T08:24:49;19.50;42.10
40289;DHT22;28991;52.028;5.526;2023-04-15T08:27:14;19.50;42.10
40289;DHT22;28991;52.028;5.526;2023-04-15T08:29:40;19.50;42.10
40289;DHT22;28991;52.028;5.526;2023-04-15T08:32:05;19.50;42.10
40289;DHT22;28991;52.028;5.526;2023-04-15T08:34:32;19.50;42.00
40289;DHT22;28991;52.028;5.526;2023-04-15T08:36:57;19.50;42.00
40289;DHT22;28991;52.028;5.526;2023-04-15T08:39:23;19.70;42.10
40289;DHT22;28991;52.028;5.526;2023-04-15T08:41:55;19.60;42.10
40289;DHT22;28991;52.028;5.526;2023-04-15T08:44:23;19.60;42.10
40289;DHT22;28991;52.028;5.526;2023-04-15T08:46:51;19.60;42.00
40289;DHT22;28991;52.028;5.526;2023-04-15T08:49:20;19.60;42.00
40289;DHT22;28991;52.028;5.526;2023-04-15T08:51:47;19.70;42.10
40289;DHT22;28991;52.028;5.526;2023-04-15T08:54:14;19.80;42.10
40289;DHT22;28991;52.028;5.526;2023-04-15T08:56:39;19.60;42.00
40289;DHT22;28991;52.028;5.526;2023-04-15T08:59:05;19.60;42.00
40289;DHT22;28991;52.028;5.526;2023-04-15T09:01:32;19.60;42.00
40289;DHT22;28991;52.028;5.526;2023-04-15T09:03:59;19.60;42.00
40289;DHT22;28991;52.028;5.526;2023-04-15T09:06:27;19.60;42.00
40289;DHT22;28991;52.028;5.526;2023-04-15T09:08:52;19.60;42.00
40289;DHT22;28991;52.028;5.526;2023-04-15T09:11:18;19.70;42.00
40289;DHT22;28991;52.028;5.526;2023-04-15T09:13:45;19.60;42.00
40289;DHT22;28991;52.028;5.526;2023-04-15T09:16:12;19.60;42.00
40289;DHT22;28991;52.028;5.526;2023-04-15T09:18:38;19.70;42.00
40289;DHT22;28991;52.028;5.526;2023-04-15T09:21:12;19.70;42.00
40289;DHT22;28991;52.028;5.526;2023-04-15T09:23:39;19.70;42.00
40289;DHT22;28991;52.028;5.526;2023-04-15T09:26:06;19.70;42.00
40289;DHT22;28991;52.028;5.526;2023-04-15T09:28:31;19.60;41.90
40289;DHT22;28991;52.028;5.526;2023-04-15T09:30:58;19.70;42.00
40289;DHT22;28991;52.028;5.526;2023-04-15T09:33:25;19.70;42.00
40289;DHT22;28991;52.028;5.526;2023-04-15T09:36:02;19.70;42.00
40289;DHT22;28991;52.028;5.526;2023-04-15T09:38:29;19.70;42.00
40289;DHT22;28991;52.028;5.526;2023-04-15T09:40:56;19.70;42.00
40289;DHT22;28991;52.028;5.526;2023-04-15T09:43:22;19.70;42.00
40289;DHT22;28991;52.028;5.526;2023-04-15T09:45:51;19.70;42.00
40289;DHT22;28991;52.028;5.526;2023-04-15T09:48:26;19.70;42.00
40289;DHT22;28991;52.028;5.526;2023-04-15T09:50:53;19.80;42.10
40289;DHT22;28991;52.028;5.526;2023-04-15T09:53:23;19.70;42.00
40289;DHT22;28991;52.028;5.526;2023-04-15T09:55:54;19.70;42.00
40289;DHT22;28991;52.028;5.526;2023-04-15T09:58:27;19.70;42.00
40289;DHT22;28991;52.028;5.526;2023-04-15T10:00:55;19.70;42.00
40289;DHT22;28991;52.028;5.526;2023-04-15T10:03:22;19.70;42.00
40289;DHT22;28991;52.028;5.526;2023-04-15T10:05:49;19.70;42.00
40289;DHT22;28991;52.028;5.526;2023-04-15T10:08:20;19.60;41.90
40289;DHT22;28991;52.028;5.526;2023-04-15T10:10:47;19.70;42.00
40289;DHT22;28991;52.028;5.526;2023-04-15T10:13:23;19.70;42.00
40289;DHT22;28991;52.028;5.526;2023-04-15T10:15:51;20.00;42.10
40289;DHT22;28991;52.028;5.526;2023-04-15T10:18:24;19.80;42.00
40289;DHT22;28991;52.028;5.526;2023-04-15T10:20:51;19.70;42.00
40289;DHT22;28991;52.028;5.526;2023-04-15T10:23:17;19.70;42.00
40289;DHT22;28991;52.028;5.526;2023-04-15T10:25:44;19.70;42.00
40289;DHT22;28991;52.028;5.526;2023-04-15T10:28:10;19.70;42.00
40289;DHT22;28991;52.028;5.526;2023-04-15T10:30:37;19.80;42.00
40289;DHT22;28991;52.028;5.526;2023-04-15T10:33:04;19.70;41.90
40289;DHT22;28991;52.028;5.526;2023-04-15T10:35:31;19.70;41.90
40289;DHT22;28991;52.028;5.526;2023-04-15T10:37:58;19.70;41.90
40289;DHT22;28991;52.028;5.526;2023-04-15T10:40:31;19.70;41.90
40289;DHT22;28991;52.028;5.526;2023-04-15T10:43:01;19.80;42.00
40289;DHT22;28991;52.028;5.526;2023-04-15T10:45:36;19.70;41.90
40289;DHT22;28991;52.028;5.526;2023-04-15T10:48:04;19.70;41.90
40289;DHT22;28991;52.028;5.526;2023-04-15T10:50:31;19.70;41.90
40289;DHT22;28991;52.028;5.526;2023-04-15T10:52:57;19.70;42.00
40289;DHT22;28991;52.028;5.526;2023-04-15T10:55:29;19.70;41.90
40289;DHT22;28991;52.028;5.526;2023-04-15T10:57:59;20.00;42.10
40289;DHT22;28991;52.028;5.526;2023-04-15T11:00:28;19.70;42.00
40289;DHT22;28991;52.028;5.526;2023-04-15T11:02:57;19.70;41.90
40289;DHT22;28991;52.028;5.526;2023-04-15T11:08:08;19.70;41.90
40289;DHT22;28991;52.028;5.526;2023-04-15T11:15:38;19.80;42.00
40289;DHT22;28991;52.028;5.526;2023-04-15T11:18:11;20.10;42.20
40289;DHT22;28991;52.028;5.526;2023-04-15T11:20:38;19.80;42.00
40289;DHT22;28991;52.028;5.526;2023-04-15T11:23:04;19.70;42.00
40289;DHT22;28991;52.028;5.526;2023-04-15T11:25:32;20.20;42.20
40289;DHT22;28991;52.028;5.526;2023-04-15T11:27:59;19.70;41.90
40289;DHT22;28991;52.028;5.526;2023-04-15T11:30:27;19.80;42.00
40289;DHT22;28991;52.028;5.526;2023-04-15T11:32:57;19.80;42.00
40289;DHT22;28991;52.028;5.526;2023-04-15T11:35:22;19.80;42.00
40289;DHT22;28991;52.028;5.526;2023-04-15T11:37:48;19.70;41.90
40289;DHT22;28991;52.028;5.526;2023-04-15T11:40:21;19.80;42.00
40289;DHT22;28991;52.028;5.526;2023-04-15T11:42:46;19.80;42.00
40289;DHT22;28991;52.028;5.526;2023-04-15T11:45:27;19.80;42.00
40289;DHT22;28991;52.028;5.526;2023-04-15T11:47:53;19.70;42.00
40289;DHT22;28991;52.028;5.526;2023-04-15T11:50:20;19.80;42.00
40289;DHT22;28991;52.028;5.526;2023-04-15T11:52:57;19.70;42.00
40289;DHT22;28991;52.028;5.526;2023-04-15T11:55:24;19.70;42.00
40289;DHT22;28991;52.028;5.526;2023-04-15T11:58:08;19.80;42.00
40289;DHT22;28991;52.028;5.526;2023-04-15T12:00:34;19.80;42.00
40289;DHT22;28991;52.028;5.526;2023-04-15T12:06:08;19.80;42.10
40289;DHT22;28991;52.028;5.526;2023-04-15T12:08:51;19.80;42.00
40289;DHT22;28991;52.028;5.526;2023-04-15T12:11:26;19.80;41.90
40289;DHT22;28991;52.028;5.526;2023-04-15T12:13:58;19.90;41.90
40289;DHT22;28991;52.028;5.526;2023-04-15T12:16:24;19.90;41.80
40289;DHT22;28991;52.028;5.526;2023-04-15T12:18:50;20.00;41.80
40289;DHT22;28991;52.028;5.526;2023-04-15T12:21:20;20.10;41.80
40289;DHT22;28991;52.028;5.526;2023-04-15T12:23:50;20.00;41.70
40289;DHT22;28991;52.028;5.526;2023-04-15T12:26:16;20.10;41.70
40289;DHT22;28991;52.028;5.526;2023-04-15T12:28:42;20.30;41.70
40289;DHT22;28991;52.028;5.526;2023-04-15T12:31:09;20.20;41.60
40289;DHT22;28991;52.028;5.526;2023-04-15T12:33:35;20.20;41.60
40289;DHT22;28991;52.028;5.526;2023-04-15T12:36:00;20.30;41.60
40289;DHT22;28991;52.028;5.526;2023-04-15T12:38:26;20.20;41.60
40289;DHT22;28991;52.028;5.526;2023-04-15T12:40:52;20.30;41.60
40289;DHT22;28991;52.028;5.526;2023-04-15T12:43:18;20.30;41.60
40289;DHT22;28991;52.028;5.526;2023-04-15T12:45:44;20.30;41.50
40289;DHT22;28991;52.028;5.526;2023-04-15T12:48:09;20.90;41.80
40289;DHT22;28991;52.028;5.526;2023-04-15T12:50:35;20.70;41.70
40289;DHT22;28991;52.028;5.526;2023-04-15T12:53:02;20.50;41.50
40289;DHT22;28991;52.028;5.526;2023-04-15T12:55:28;20.30;41.40
40289;DHT22;28991;52.028;5.526;2023-04-15T12:57:55;20.40;41.40
40289;DHT22;28991;52.028;5.526;2023-04-15T13:00:21;20.40;41.40
40289;DHT22;28991;52.028;5.526;2023-04-15T13:02:47;20.50;41.40
40289;DHT22;28991;52.028;5.526;2023-04-15T13:05:13;20.50;41.40
40289;DHT22;28991;52.028;5.526;2023-04-15T13:07:40;20.40;41.30
40289;DHT22;28991;52.028;5.526;2023-04-15T13:10:06;20.40;41.40
40289;DHT22;28991;52.028;5.526;2023-04-15T13:12:32;20.40;41.30
40289;DHT22;28991;52.028;5.526;2023-04-15T13:15:04;20.40;41.30
40289;DHT22;28991;52.028;5.526;2023-04-15T13:17:29;20.40;41.30
40289;DHT22;28991;52.028;5.526;2023-04-15T13:19:55;20.40;41.30
40289;DHT22;28991;52.028;5.526;2023-04-15T13:22:21;20.40;41.30
40289;DHT22;28991;52.028;5.526;2023-04-15T13:24:46;20.40;41.40
40289;DHT22;28991;52.028;5.526;2023-04-15T13:27:12;20.30;41.30
40289;DHT22;28991;52.028;5.526;2023-04-15T13:29:38;20.50;41.40
40289;DHT22;28991;52.028;5.526;2023-04-15T13:32:05;20.90;41.60
40289;DHT22;28991;52.028;5.526;2023-04-15T13:34:31;20.40;41.30
40289;DHT22;28991;52.028;5.526;2023-04-15T13:36:56;20.40;41.30
40289;DHT22;28991;52.028;5.526;2023-04-15T13:39:22;20.40;41.30
40289;DHT22;28991;52.028;5.526;2023-04-15T13:41:48;20.40;41.40
40289;DHT22;28991;52.028;5.526;2023-04-15T13:44:13;20.80;41.60
40289;DHT22;28991;52.028;5.526;2023-04-15T13:46:39;20.40;41.40
40289;DHT22;28991;52.028;5.526;2023-04-15T13:49:06;20.40;41.40
40289;DHT22;28991;52.028;5.526;2023-04-15T13:51:32;20.40;41.40
40289;DHT22;28991;52.028;5.526;2023-04-15T13:54:00;20.40;41.40
40289;DHT22;28991;52.028;5.526;2023-04-15T13:56:25;20.30;41.40
40289;DHT22;28991;52.028;5.526;2023-04-15T13:58:51;20.30;41.90
40289;DHT22;28991;52.028;5.526;2023-04-15T14:01:17;20.30;41.40
40289;DHT22;28991;52.028;5.526;2023-04-15T14:03:42;20.40;41.40
40289;DHT22;28991;52.028;5.526;2023-04-15T14:06:08;20.30;41.40
40289;DHT22;28991;52.028;5.526;2023-04-15T14:08:33;20.30;41.40
40289;DHT22;28991;52.028;5.526;2023-04-15T14:10:59;20.30;41.40
40289;DHT22;28991;52.028;5.526;2023-04-15T14:13:25;20.30;41.40
40289;DHT22;28991;52.028;5.526;2023-04-15T14:15:50;20.30;41.40
40289;DHT22;28991;52.028;5.526;2023-04-15T14:18:16;20.30;41.40
40289;DHT22;28991;52.028;5.526;2023-04-15T14:20:41;20.40;41.50
40289;DHT22;28991;52.028;5.526;2023-04-15T14:23:07;20.30;41.50
40289;DHT22;28991;52.028;5.526;2023-04-15T14:25:32;20.30;41.50
40289;DHT22;28991;52.028;5.526;2023-04-15T14:27:58;20.30;41.50
40289;DHT22;28991;52.028;5.526;2023-04-15T14:30:23;20.30;41.50
40289;DHT22;28991;52.028;5.526;2023-04-15T14:32:49;20.30;41.50
40289;DHT22;28991;52.028;5.526;2023-04-15T14:35:15;20.30;41.50
40289;DHT22;28991;52.028;5.526;2023-04-15T14:37:40;20.30;41.50
40289;DHT22;28991;52.028;5.526;2023-04-15T14:40:06;20.30;41.50
40289;DHT22;28991;52.028;5.526;2023-04-15T14:42:32;20.20;41.50
40289;DHT22;28991;52.028;5.526;2023-04-15T14:44:58;20.40;41.60
40289;DHT22;28991;52.028;5.526;2023-04-15T14:47:23;20.50;41.70
40289;DHT22;28991;52.028;5.526;2023-04-15T14:49:49;20.20;41.50
40289;DHT22;28991;52.028;5.526;2023-04-15T14:52:15;20.20;41.60
40289;DHT22;28991;52.028;5.526;2023-04-15T14:54:40;20.10;41.60
40289;DHT22;28991;52.028;5.526;2023-04-15T14:57:06;20.10;41.60
40289;DHT22;28991;52.028;5.526;2023-04-15T14:59:33;20.30;41.70
40289;DHT22;28991;52.028;5.526;2023-04-15T15:01:58;20.10;41.60
40289;DHT22;28991;52.028;5.526;2023-04-15T15:04:24;20.10;41.70
40289;DHT22;28991;52.028;5.526;2023-04-15T15:06:49;20.10;41.70
40289;DHT22;28991;52.028;5.526;2023-04-15T15:09:15;20.00;41.70
40289;DHT22;28991;52.028;5.526;2023-04-15T15:11:41;20.00;41.70
40289;DHT22;28991;52.028;5.526;2023-04-15T15:14:06;20.20;41.90
40289;DHT22;28991;52.028;5.526;2023-04-15T15:16:32;20.00;41.80
40289;DHT22;28991;52.028;5.526;2023-04-15T15:18:57;20.00;41.80
40289;DHT22;28991;52.028;5.526;2023-04-15T15:21:23;20.00;41.80
40289;DHT22;28991;52.028;5.526;2023-04-15T15:23:48;20.00;41.80
40289;DHT22;28991;52.028;5.526;2023-04-15T15:26:14;20.00;41.80
40289;DHT22;28991;52.028;5.526;2023-04-15T15:28:40;20.00;41.90
40289;DHT22;28991;52.028;5.526;2023-04-15T15:31:06;20.00;41.80
40289;DHT22;28991;52.028;5.526;2023-04-15T15:33:32;20.00;41.90
40289;DHT22;28991;52.028;5.526;2023-04-15T15:35:57;20.00;41.90
40289;DHT22;28991;52.028;5.526;2023-04-15T15:38:23;20.00;41.90